< < Back
Terminal Aerodrome Forecast


Current Version              Previous Versions:   1  2  3  4  5  6  7  8  9  

Terminal Aerodrome Forecast

645
FTUS42 KTAE 230520
TAFVLD
TAF
KVLD 230520Z 2306/2406 11006KT P6SM SCT250
     FM231400 08011KT P6SM FEW045 SCT150=

Latest METAR

935
SAUS70 KWBC 231000 RRN
MTRVLD
METAR KVLD 230953Z AUTO 07003KT 10SM CLR 18/17 A3023 RMK AO2 SLP243
T01830167 TSNO


USA.gov is the U.S. government's official web portal to all federal, state and local government web resources and services.